Kezdőlap
METAR-TAF:

METAR-TAF

Repülőterek :

Victoria, Mahé, Seychelle-szigetek

földrajzi szélesség: 04-40S, földrajzi hosszúság: 055-31E, magasság: 3 m

Jelenlegi meteorológiai megfigyelések

A jelentés 1 órával és 4 perccel ezelõtt készült, 02:00 UTC
Délkeleti szél 15 kt
Hőmérséklet 28°C
Páratartalom 74%
Légköri nyomás 1010 hPa
Látótávolság 10 km, vagy több
Szórványos felhőzet 2300 lábon

METAR: FSIA 220200Z 14015KT 9999 SCT023 28/23 Q1010 NOSIG

Idő: 07:04 (03:04 UTC)

Előrejelzés

A jelentés 10 órával és 4 perccel ezelõtt készült, 17:00 UTC
Az előrejelzés 21-én 18 óra UTC és 22-én 18 óra UTC között érvényes
Délkeleti szél 13 kt széllökések: 26 kt
Látótávolság 10 km, vagy több
Szórványos felhőzet 2200 lábon

TAF: FSIA 211700Z 2118/2218 13013G26KT 9999 SCT022

Meteorológiai megfigyelések és előrejelzések több, mint 4000 repülőtéren (METAR és TAF jelentéseket).

A térképen piros és sárga pontok jelzik az elérhető meteorológiai állomásokat.

Mozgassa az egeret a pont fölött, hogy megjelenjen az állomás neve.

Azután kattintson az időjárási megfigyelések és előrejelzések megtekintéséhez.

A térkép megváltoztatása: kattintson a fekete keresztel jelölt zöld gombra ráközelítéshez, a vonallal jelölt zöld gombra távolításhoz, vagy a zöld nyilakra a szomszédos térképek eléréséhez.


METAR-TAF: